OGG weather

Kahului Airport
Kahului, Hawaii, United States

Public forecast

Using degrees Fahrenheit for public forecast. Weather courtesy of forecast.io.

METAR (pilot weather report)

Retrieved 2019/03/26 23:54 UTC (10 minutes ago):

PHOG 262354Z 03018KT 10SM FEW030 SCT045 28/17 A3000

TAF (pilot weather forecast)

Forecast is more than 12 hours old.

Retrieved 2019/03/26 00:45 UTC (23 hours ago):

TAF PHOG 262341Z 2700/2724 04017G23KT P6SM SCT025 SCT050 FM270500 05007KT P6SM FEW025 SCT050 FM271200 12005KT P6SM FEW025 SCT035 FM272100 35008KT P6SM SCT025 SCT035 AMD LTD TO VIS AND WIND 2709/2716